createdAt,value
2023-05-22T00:00:25.017Z,14.45
2023-05-22T00:02:52.494Z,15.20
2023-05-22T00:05:20.544Z,15.45
2023-05-22T00:07:47.890Z,15.98
2023-05-22T00:10:15.078Z,14.93
2023-05-22T00:12:42.154Z,16.02
2023-05-22T00:15:09.524Z,16.48
2023-05-22T00:17:36.740Z,16.05
2023-05-22T00:20:06.824Z,15.73
2023-05-22T00:22:35.557Z,16.08
2023-05-22T00:25:05.925Z,16.73
2023-05-22T00:27:33.349Z,16.63
2023-05-22T00:30:01.081Z,16.45
2023-05-22T00:32:28.505Z,16.35
2023-05-22T00:34:55.729Z,16.23
2023-05-22T00:37:23.208Z,16.90
2023-05-22T00:39:50.456Z,15.60
2023-05-22T00:42:17.649Z,16.15
2023-05-22T00:44:44.771Z,15.43
2023-05-22T00:47:12.001Z,16.55
2023-05-22T00:49:39.129Z,16.95
2023-05-22T00:52:06.399Z,16.75
2023-05-22T00:54:33.523Z,17.00
2023-05-22T00:57:01.524Z,17.08
2023-05-22T00:59:28.908Z,16.75
2023-05-22T01:01:57.187Z,17.15
2023-05-22T01:04:24.526Z,17.63
2023-05-22T01:06:51.703Z,16.95
2023-05-22T01:09:18.822Z,17.08
2023-05-22T01:11:54.764Z,18.27
2023-05-22T01:14:28.134Z,17.63
2023-05-22T01:17:10.704Z,17.02
2023-05-22T01:19:38.044Z,16.90
2023-05-22T01:22:08.726Z,16.05
2023-05-22T01:24:45.091Z,17.10
2023-05-22T01:27:12.162Z,17.25
2023-05-22T01:29:58.244Z,17.25
2023-05-22T01:32:26.189Z,17.08
2023-05-22T01:34:54.849Z,15.77
2023-05-22T01:37:22.548Z,15.57
2023-05-22T01:39:49.684Z,16.90
2023-05-22T01:42:16.849Z,16.40
2023-05-22T01:44:43.976Z,16.08
2023-05-22T01:47:11.153Z,16.17
2023-05-22T01:49:38.228Z,17.23
2023-05-22T01:52:18.552Z,17.10
2023-05-22T01:54:47.291Z,15.23
2023-05-22T01:57:17.276Z,15.57
2023-05-22T01:59:47.514Z,15.60
2023-05-22T02:02:17.662Z,15.55
2023-05-22T02:04:46.543Z,15.65
2023-05-22T02:07:14.213Z,15.25
2023-05-22T02:09:41.512Z,15.10
2023-05-22T02:12:08.833Z,15.05
2023-05-22T02:14:36.776Z,15.38
2023-05-22T02:17:04.082Z,16.38
2023-05-22T02:19:31.305Z,15.85
2023-05-22T02:21:58.528Z,16.88
2023-05-22T02:24:25.753Z,17.15
2023-05-22T02:26:52.860Z,17.52
2023-05-22T02:29:19.958Z,18.15
2023-05-22T02:31:47.069Z,17.35
2023-05-22T02:34:14.212Z,17.95
2023-05-22T02:36:41.374Z,17.58
2023-05-22T02:39:08.967Z,17.95
2023-05-22T02:41:36.072Z,17.00
2023-05-22T02:44:03.156Z,17.00
2023-05-22T02:46:30.457Z,17.15
2023-05-22T02:48:57.826Z,16.45
2023-05-22T02:51:24.918Z,16.73
2023-05-22T02:53:52.373Z,16.65
2023-05-22T02:56:20.980Z,15.98
2023-05-22T02:58:48.239Z,15.63
2023-05-22T03:01:15.581Z,16.70
2023-05-22T03:03:43.723Z,16.80
2023-05-22T03:06:11.101Z,16.83
2023-05-22T03:08:41.634Z,16.33
2023-05-22T03:11:09.100Z,17.27
2023-05-22T03:13:36.607Z,17.02
2023-05-22T03:16:03.877Z,17.27
2023-05-22T03:18:31.379Z,16.17
2023-05-22T03:20:58.431Z,17.73
2023-05-22T03:23:25.643Z,17.83
2023-05-22T03:25:52.765Z,17.63
2023-05-22T03:28:19.923Z,17.75
2023-05-22T03:30:47.549Z,18.33
2023-05-22T03:33:14.725Z,17.33
2023-05-22T03:35:43.757Z,19.48
2023-05-22T03:38:11.184Z,18.73
2023-05-22T03:40:38.537Z,19.67
2023-05-22T03:43:05.846Z,20.35
2023-05-22T03:45:32.948Z,19.88
2023-05-22T03:48:00.254Z,17.55
2023-05-22T03:50:27.514Z,18.75
2023-05-22T03:52:54.692Z,18.23
2023-05-22T03:55:21.848Z,19.17
2023-05-22T03:57:48.918Z,18.70
2023-05-22T04:00:19.458Z,19.05
2023-05-22T04:05:13.736Z,17.75
2023-05-22T04:07:40.881Z,17.42
2023-05-22T04:10:08.278Z,17.48
2023-05-22T04:12:35.477Z,17.40
2023-05-22T04:15:02.730Z,18.17
2023-05-22T04:17:33.532Z,17.15
2023-05-22T04:20:00.908Z,17.75
2023-05-22T04:22:30.815Z,17.63
2023-05-22T04:24:58.173Z,18.10
2023-05-22T04:27:26.318Z,18.23
2023-05-22T04:29:53.723Z,18.55
2023-05-22T04:32:23.817Z,18.45
2023-05-22T04:34:51.064Z,18.05
2023-05-22T04:37:21.220Z,18.27
2023-05-22T04:39:48.365Z,17.30
2023-05-22T04:42:16.013Z,17.98
2023-05-22T04:44:43.576Z,18.73
2023-05-22T04:47:14.593Z,17.77
2023-05-22T04:49:43.524Z,17.95
2023-05-22T04:52:11.610Z,18.48
2023-05-22T04:54:38.966Z,18.60
2023-05-22T04:57:06.309Z,20.88
2023-05-22T04:59:37.932Z,19.30
2023-05-22T05:02:05.777Z,21.00
2023-05-22T05:04:33.050Z,20.75
2023-05-22T05:07:00.242Z,21.17
2023-05-22T05:09:27.339Z,21.40
2023-05-22T05:11:55.208Z,20.15
2023-05-22T05:14:22.393Z,20.30
2023-05-22T05:16:51.674Z,19.40
2023-05-22T05:19:21.465Z,20.42
2023-05-22T05:21:49.367Z,20.45
2023-05-22T05:24:19.646Z,18.58
2023-05-22T05:26:46.795Z,19.80
2023-05-22T05:29:13.915Z,19.25
2023-05-22T05:31:41.241Z,18.50
2023-05-22T05:34:08.394Z,18.67
2023-05-22T05:36:35.700Z,18.00
2023-05-22T05:39:02.807Z,18.25
2023-05-22T05:41:29.873Z,18.27
2023-05-22T05:43:59.914Z,16.58
2023-05-22T05:46:27.123Z,16.65
2023-05-22T05:48:54.285Z,17.20
2023-05-22T05:51:22.156Z,16.85
2023-05-22T05:53:49.344Z,16.35
2023-05-22T05:56:16.575Z,15.63
2023-05-22T05:58:43.744Z,16.38
2023-05-22T06:01:11.794Z,16.35
2023-05-22T06:03:39.255Z,15.35
2023-05-22T06:06:07.260Z,14.35
2023-05-22T06:08:34.600Z,14.45
2023-05-22T06:11:02.259Z,13.40
2023-05-22T06:13:29.453Z,13.35
2023-05-22T06:15:58.701Z,12.82
2023-05-22T06:18:27.690Z,12.50
2023-05-22T06:20:54.893Z,11.43
2023-05-22T06:23:22.120Z,11.85
2023-05-22T06:25:49.248Z,11.23
2023-05-22T06:28:16.408Z,10.68
2023-05-22T06:30:43.810Z,11.05
2023-05-22T06:33:11.036Z,10.95
2023-05-22T06:35:38.120Z,11.48
2023-05-22T06:38:05.310Z,11.15
2023-05-22T06:40:32.462Z,10.77
2023-05-22T06:42:59.674Z,10.90
2023-05-22T06:45:26.778Z,11.52
2023-05-22T06:47:54.240Z,10.88
2023-05-22T06:50:22.301Z,11.00
2023-05-22T06:52:49.448Z,10.80
2023-05-22T06:55:16.595Z,11.02
2023-05-22T06:57:43.706Z,11.10
2023-05-22T07:00:12.773Z,10.60
2023-05-22T07:02:40.213Z,10.02
2023-05-22T07:05:07.584Z,10.10
2023-05-22T07:07:34.765Z,9.82
2023-05-22T07:10:01.902Z,10.63
2023-05-22T07:12:29.596Z,9.32
2023-05-22T07:14:57.854Z,9.75
2023-05-22T07:17:25.081Z,8.98
2023-05-22T07:19:52.266Z,9.02
2023-05-22T07:22:19.445Z,8.45
2023-05-22T07:24:47.467Z,8.23
2023-05-22T07:27:14.880Z,8.20
2023-05-22T07:29:41.998Z,7.53
2023-05-22T07:32:09.233Z,8.15
2023-05-22T07:34:36.396Z,7.38
2023-05-22T07:37:12.592Z,8.32
2023-05-22T07:39:39.687Z,7.07
2023-05-22T07:42:07.097Z,7.30
2023-05-22T07:44:34.416Z,7.20
2023-05-22T07:47:01.690Z,7.18
2023-05-22T07:49:28.914Z,7.50
2023-05-22T07:51:56.096Z,6.97
2023-05-22T07:54:23.190Z,6.95
2023-05-22T07:56:50.397Z,7.38
2023-05-22T07:59:19.639Z,7.18
2023-05-22T08:01:46.820Z,7.00
2023-05-22T08:04:14.180Z,7.30
2023-05-22T08:06:43.821Z,6.80
2023-05-22T08:09:10.976Z,6.78
2023-05-22T08:11:40.147Z,7.72
2023-05-22T08:14:07.734Z,7.53
2023-05-22T08:16:35.091Z,6.22
2023-05-22T08:19:02.448Z,6.65
2023-05-22T08:21:29.789Z,6.80
2023-05-22T08:23:57.023Z,6.60
2023-05-22T08:26:24.200Z,6.20
2023-05-22T08:28:52.285Z,6.32
2023-05-22T08:31:19.501Z,6.18
2023-05-22T08:33:46.872Z,6.20
2023-05-22T08:36:14.023Z,6.20
2023-05-22T08:38:41.518Z,6.40
2023-05-22T08:41:09.232Z,6.45
2023-05-22T08:43:36.339Z,6.15
2023-05-22T08:46:09.012Z,5.75
2023-05-22T08:48:36.140Z,5.82
2023-05-22T08:51:03.874Z,6.38
2023-05-22T08:53:32.278Z,5.80
2023-05-22T08:55:59.550Z,5.90
2023-05-22T08:58:26.808Z,6.03
2023-05-22T09:00:53.972Z,5.43
2023-05-22T09:03:21.653Z,6.13
2023-05-22T09:05:49.550Z,5.90
2023-05-22T09:08:20.900Z,5.47
2023-05-22T09:10:48.649Z,6.00
2023-05-22T09:13:26.414Z,5.68
2023-05-22T09:15:53.556Z,6.18
2023-05-22T09:18:22.069Z,6.28
2023-05-22T09:20:49.212Z,6.07
2023-05-22T09:23:19.845Z,6.85
2023-05-22T09:25:47.731Z,6.80
2023-05-22T09:28:14.874Z,6.72
2023-05-22T09:30:42.625Z,6.47
2023-05-22T09:33:09.986Z,6.78
2023-05-22T09:35:39.490Z,7.00
2023-05-22T09:38:06.722Z,6.57
2023-05-22T09:40:35.125Z,7.10
2023-05-22T09:43:02.853Z,6.63
2023-05-22T09:45:30.058Z,6.65
2023-05-22T09:47:57.872Z,7.05
2023-05-22T09:50:25.001Z,7.07
2023-05-22T09:52:52.251Z,7.03
2023-05-22T09:55:19.457Z,7.30
2023-05-22T09:57:48.350Z,7.03
2023-05-22T10:00:19.346Z,7.00
2023-05-22T10:02:47.297Z,6.60
2023-05-22T10:05:23.800Z,7.25
2023-05-22T10:07:52.145Z,6.60
2023-05-22T10:10:21.471Z,6.82
2023-05-22T10:12:50.987Z,7.57
2023-05-22T10:15:18.785Z,6.57
2023-05-22T10:17:46.537Z,6.90
2023-05-22T10:20:14.146Z,8.23
2023-05-22T10:22:41.251Z,7.55
2023-05-22T10:25:10.619Z,6.32
2023-05-22T10:27:38.047Z,7.30
2023-05-22T10:30:25.781Z,6.05
2023-05-22T10:32:53.726Z,6.18
2023-05-22T10:35:21.876Z,6.10
2023-05-22T10:37:52.124Z,6.28
2023-05-22T10:40:29.326Z,5.82
2023-05-22T10:43:04.018Z,6.45
2023-05-22T10:45:31.894Z,6.30
2023-05-22T10:48:03.379Z,6.00
2023-05-22T10:50:30.738Z,6.57
2023-05-22T10:53:16.778Z,5.95
2023-05-22T10:55:53.497Z,5.80
2023-05-22T10:58:27.821Z,5.93
2023-05-22T11:01:13.658Z,6.63
2023-05-22T11:03:59.226Z,5.55
2023-05-22T11:06:33.468Z,5.95
2023-05-22T11:09:00.652Z,5.93
2023-05-22T11:11:27.963Z,5.68
2023-05-22T11:14:05.413Z,5.20
2023-05-22T11:16:35.599Z,5.60
2023-05-22T11:21:46.421Z,5.18
2023-05-22T11:24:13.949Z,5.20
2023-05-22T11:26:44.355Z,4.97
2023-05-22T11:29:11.604Z,5.57
2023-05-22T11:31:38.909Z,5.53
2023-05-22T11:34:06.038Z,4.78
2023-05-22T11:36:33.156Z,5.20
2023-05-22T11:39:00.498Z,6.20
2023-05-22T11:41:33.197Z,5.15
2023-05-22T11:44:01.470Z,5.13
2023-05-22T11:46:30.184Z,5.57
2023-05-22T11:48:57.434Z,5.45
2023-05-22T11:51:24.666Z,5.15
2023-05-22T11:53:51.787Z,5.80
2023-05-22T11:56:21.537Z,5.60
2023-05-22T11:58:51.917Z,5.40
2023-05-22T12:01:19.145Z,5.70
2023-05-22T12:03:46.508Z,5.20
2023-05-22T12:06:15.824Z,5.40
2023-05-22T12:08:44.739Z,5.35
2023-05-22T12:11:14.870Z,5.43
2023-05-22T12:13:41.977Z,5.20
2023-05-22T12:16:18.771Z,4.95
2023-05-22T12:18:46.260Z,5.25
2023-05-22T12:21:13.491Z,4.63
2023-05-22T12:23:48.243Z,5.00
2023-05-22T12:26:15.380Z,4.82
2023-05-22T12:28:42.475Z,4.18
2023-05-22T12:31:09.609Z,4.90
2023-05-22T12:33:36.710Z,4.97
2023-05-22T12:36:07.738Z,5.00
2023-05-22T12:38:35.639Z,5.03
2023-05-22T12:41:02.863Z,5.68
2023-05-22T12:43:29.970Z,4.88
2023-05-22T12:45:57.232Z,4.82
2023-05-22T12:48:24.462Z,4.80
2023-05-22T12:50:51.603Z,4.80
2023-05-22T12:53:19.583Z,4.85
2023-05-22T12:55:46.873Z,4.93
2023-05-22T12:58:13.993Z,4.63
2023-05-22T13:00:41.340Z,4.38
2023-05-22T13:03:08.650Z,4.63
2023-05-22T13:05:35.912Z,5.10
2023-05-22T13:08:03.159Z,4.53
2023-05-22T13:10:30.632Z,4.70
2023-05-22T13:12:57.786Z,4.90
2023-05-22T13:15:24.920Z,5.30
2023-05-22T13:17:52.022Z,7.10
2023-05-22T13:20:19.186Z,7.43
2023-05-22T13:22:46.392Z,4.80
2023-05-22T13:25:13.525Z,4.78
2023-05-22T13:27:40.738Z,5.00
2023-05-22T13:30:08.030Z,4.80
2023-05-22T13:32:35.288Z,5.00
2023-05-22T13:35:02.542Z,4.70
2023-05-22T13:37:29.673Z,5.60
2023-05-22T13:39:56.757Z,5.40
2023-05-22T13:42:23.850Z,4.85
2023-05-22T13:44:50.999Z,5.53
2023-05-22T13:47:18.289Z,5.18
2023-05-22T13:49:45.934Z,5.28
2023-05-22T13:52:13.061Z,5.03
2023-05-22T13:54:40.266Z,5.03
2023-05-22T13:57:07.525Z,5.30
2023-05-22T13:59:34.813Z,10.57
2023-05-22T14:02:02.005Z,6.55
2023-05-22T14:04:29.227Z,7.28
2023-05-22T14:06:56.355Z,8.68
2023-05-22T14:09:23.595Z,6.97
2023-05-22T14:11:50.752Z,5.68
2023-05-22T14:14:23.650Z,5.70
2023-05-22T14:16:51.580Z,5.55
2023-05-22T14:19:19.059Z,5.43
2023-05-22T14:21:47.835Z,6.45
2023-05-22T14:24:14.923Z,5.22
2023-05-22T14:26:42.233Z,5.50
2023-05-22T14:29:09.669Z,5.60
2023-05-22T14:31:48.424Z,6.25
2023-05-22T14:34:17.883Z,5.80
2023-05-22T14:36:45.064Z,5.38
2023-05-22T14:39:12.213Z,5.90
2023-05-22T14:41:39.411Z,5.80
2023-05-22T14:44:06.730Z,6.70
2023-05-22T14:46:33.851Z,5.40
2023-05-22T14:49:01.034Z,8.00
2023-05-22T14:51:28.115Z,5.20
2023-05-22T14:53:55.483Z,4.70
2023-05-22T14:56:23.030Z,5.05
2023-05-22T14:58:50.211Z,6.03
2023-05-22T15:01:17.366Z,5.93
2023-05-22T15:03:44.566Z,6.57
2023-05-22T15:06:11.752Z,5.20
2023-05-22T15:08:38.866Z,7.07
2023-05-22T15:11:06.019Z,6.82
2023-05-22T15:13:33.174Z,5.65
2023-05-22T15:16:00.283Z,5.18
2023-05-22T15:18:27.542Z,6.20
2023-05-22T15:20:54.833Z,6.28
2023-05-22T15:23:25.234Z,6.38
2023-05-22T15:25:55.348Z,8.13
2023-05-22T15:28:22.493Z,5.82
2023-05-22T15:30:49.624Z,5.45
2023-05-22T15:33:17.186Z,5.35
2023-05-22T15:35:46.656Z,5.57
2023-05-22T15:38:15.527Z,8.52
2023-05-22T15:40:42.809Z,6.57
2023-05-22T15:43:10.064Z,5.85
2023-05-22T15:45:40.141Z,6.30
2023-05-22T15:48:07.652Z,6.30
2023-05-22T15:50:34.879Z,7.70
2023-05-22T15:53:02.067Z,8.63
2023-05-22T15:55:29.258Z,6.80
2023-05-22T15:57:56.347Z,6.60
2023-05-22T16:00:23.566Z,6.57
2023-05-22T16:02:51.217Z,5.55
2023-05-22T16:05:18.501Z,6.82
2023-05-22T16:07:45.744Z,5.32
2023-05-22T16:10:12.877Z,5.55
2023-05-22T16:12:41.121Z,5.57
2023-05-22T16:15:08.686Z,5.80
2023-05-22T16:17:36.136Z,5.53
2023-05-22T16:20:04.949Z,5.93
2023-05-22T16:22:47.318Z,6.10
2023-05-22T16:25:16.672Z,6.05
2023-05-22T16:27:43.782Z,6.60
2023-05-22T16:30:12.094Z,6.13
2023-05-22T16:32:39.575Z,5.50
2023-05-22T16:35:06.801Z,5.40
2023-05-22T16:37:34.183Z,5.68
2023-05-22T16:40:01.409Z,5.57
2023-05-22T16:42:28.502Z,6.20
2023-05-22T16:44:55.776Z,6.35
2023-05-22T16:47:22.946Z,6.40
2023-05-22T16:49:50.496Z,6.15
2023-05-22T16:52:22.200Z,6.68
2023-05-22T16:54:49.784Z,6.20
2023-05-22T16:57:17.083Z,7.18
2023-05-22T16:59:44.530Z,6.65
2023-05-22T17:02:11.767Z,7.15
2023-05-22T17:04:40.108Z,9.90
2023-05-22T17:07:07.240Z,8.10
2023-05-22T17:09:34.555Z,8.38
2023-05-22T17:12:01.795Z,8.32
2023-05-22T17:14:28.878Z,8.45
2023-05-22T17:16:56.287Z,9.20
2023-05-22T17:19:23.719Z,9.48
2023-05-22T17:21:50.912Z,10.45
2023-05-22T17:24:18.042Z,9.68
2023-05-22T17:26:45.157Z,10.40
2023-05-22T17:29:12.303Z,11.32
2023-05-22T17:31:39.796Z,10.25
2023-05-22T17:34:07.093Z,10.75
2023-05-22T17:36:34.416Z,11.50
2023-05-22T17:39:01.693Z,12.30
2023-05-22T17:41:28.845Z,11.05
2023-05-22T17:43:57.151Z,11.18
2023-05-22T17:46:24.367Z,11.35
2023-05-22T17:48:51.617Z,12.52
2023-05-22T17:51:18.724Z,11.23
2023-05-22T17:53:45.934Z,11.10
2023-05-22T17:56:13.156Z,10.95
2023-05-22T17:58:40.650Z,11.85
2023-05-22T18:01:07.802Z,12.07
2023-05-22T18:03:35.168Z,11.25
2023-05-22T18:06:02.339Z,11.38
2023-05-22T18:08:29.520Z,11.68
2023-05-22T18:10:58.110Z,12.95
2023-05-22T18:13:25.193Z,11.50
2023-05-22T18:15:52.436Z,12.38
2023-05-22T18:18:19.654Z,11.77
2023-05-22T18:20:46.806Z,12.35
2023-05-22T18:23:13.906Z,12.25
2023-05-22T18:25:41.540Z,12.77
2023-05-22T18:28:08.763Z,13.45
2023-05-22T18:30:36.189Z,13.57
2023-05-22T18:33:03.907Z,13.73
2023-05-22T18:35:32.808Z,12.23
2023-05-22T18:38:00.222Z,10.00
2023-05-22T18:40:27.433Z,8.98
2023-05-22T18:42:54.560Z,8.20
2023-05-22T18:45:21.686Z,7.43
2023-05-22T18:47:48.833Z,8.35
2023-05-22T18:50:16.052Z,8.90
2023-05-22T18:52:43.265Z,9.63
2023-05-22T18:55:11.222Z,9.75
2023-05-22T18:57:38.368Z,10.38
2023-05-22T19:00:06.944Z,11.23
2023-05-22T19:02:34.245Z,11.80
2023-05-22T19:05:01.518Z,12.77
2023-05-22T19:07:28.891Z,12.68
2023-05-22T19:09:55.984Z,11.98
2023-05-22T19:12:24.659Z,12.00
2023-05-22T19:14:52.524Z,12.52
2023-05-22T19:17:19.593Z,12.88
2023-05-22T19:19:46.827Z,16.33
2023-05-22T19:22:17.709Z,13.77
2023-05-22T19:24:45.198Z,14.82
2023-05-22T19:27:12.434Z,14.45
2023-05-22T19:29:39.705Z,15.15
2023-05-22T19:32:07.003Z,14.95
2023-05-22T19:34:34.109Z,15.75
2023-05-22T19:37:01.505Z,15.20
2023-05-22T19:39:28.700Z,15.52
2023-05-22T19:41:55.903Z,15.40
2023-05-22T19:44:23.051Z,17.27
2023-05-22T19:46:50.249Z,17.73
2023-05-22T19:49:17.571Z,17.45
2023-05-22T19:51:45.832Z,17.45
2023-05-22T19:54:12.937Z,18.08
2023-05-22T19:56:40.476Z,17.25
2023-05-22T19:59:07.569Z,18.33
2023-05-22T20:01:34.700Z,18.35
2023-05-22T20:04:01.954Z,20.50
2023-05-22T20:06:31.527Z,19.73
2023-05-22T20:08:58.749Z,19.92
2023-05-22T20:11:26.389Z,20.48
2023-05-22T20:13:54.498Z,22.08
2023-05-22T20:16:21.758Z,22.77
2023-05-22T20:18:49.077Z,23.98
2023-05-22T20:21:16.557Z,24.65
2023-05-22T20:23:43.917Z,27.83
2023-05-22T20:26:11.290Z,26.88
2023-05-22T20:28:38.525Z,28.83
2023-05-22T20:31:06.057Z,27.33
2023-05-22T20:33:33.231Z,28.33
2023-05-22T20:36:01.480Z,29.50
2023-05-22T20:38:29.259Z,30.15
2023-05-22T20:40:58.435Z,32.97
2023-05-22T20:43:26.191Z,34.40
2023-05-22T20:45:54.156Z,33.38
2023-05-22T20:48:21.280Z,34.88
2023-05-22T20:50:50.402Z,35.67
2023-05-22T20:53:18.216Z,38.05
2023-05-22T20:55:45.372Z,40.85
2023-05-22T20:58:12.473Z,42.67
2023-05-22T21:00:42.054Z,47.13
2023-05-22T21:03:09.465Z,48.45
2023-05-22T21:05:36.729Z,48.65
2023-05-22T21:08:03.811Z,49.25
2023-05-22T21:10:30.959Z,48.38
2023-05-22T21:12:58.093Z,49.22
2023-05-22T21:15:25.304Z,46.63
2023-05-22T21:17:52.509Z,46.95
2023-05-22T21:20:19.639Z,48.80
2023-05-22T21:22:48.091Z,47.08
2023-05-22T21:25:15.285Z,47.83
2023-05-22T21:27:42.388Z,45.72
2023-05-22T21:30:12.587Z,47.00
2023-05-22T21:32:39.713Z,44.47
2023-05-22T21:35:07.188Z,45.75
2023-05-22T21:37:34.267Z,44.55
2023-05-22T21:40:04.303Z,43.35
2023-05-22T21:42:45.160Z,42.33
2023-05-22T21:45:13.983Z,40.17
2023-05-22T21:47:41.225Z,38.75
2023-05-22T21:50:08.525Z,37.75
2023-05-22T21:52:35.656Z,38.60
2023-05-22T21:55:02.802Z,37.83
2023-05-22T21:57:29.946Z,38.92
2023-05-22T21:59:57.126Z,39.45
2023-05-22T22:02:24.596Z,38.67
2023-05-22T22:04:51.723Z,36.63
2023-05-22T22:07:18.845Z,36.47
2023-05-22T22:09:46.072Z,35.90
2023-05-22T22:12:13.160Z,34.58
2023-05-22T22:14:40.285Z,32.83
2023-05-22T22:17:07.842Z,30.08
2023-05-22T22:19:36.125Z,27.15
2023-05-22T22:22:03.486Z,24.83
2023-05-22T22:24:30.633Z,24.45
2023-05-22T22:26:58.247Z,23.02
2023-05-22T22:29:25.318Z,23.75
2023-05-22T22:31:52.975Z,25.15
2023-05-22T22:34:20.227Z,25.40
2023-05-22T22:36:47.557Z,28.45
2023-05-22T22:39:14.732Z,31.40
2023-05-22T22:41:43.023Z,33.00
2023-05-22T22:44:10.521Z,33.78
2023-05-22T22:46:37.972Z,34.55
2023-05-22T22:49:05.202Z,35.47
2023-05-22T22:51:32.314Z,35.33
2023-05-22T22:53:59.471Z,32.95
2023-05-22T22:56:29.736Z,30.40
2023-05-22T22:58:57.343Z,26.73
2023-05-22T23:01:24.841Z,24.65
2023-05-22T23:03:52.273Z,22.88
2023-05-22T23:06:19.766Z,21.40
2023-05-22T23:08:46.852Z,22.52
2023-05-22T23:11:13.989Z,19.85
2023-05-22T23:13:43.075Z,20.08
2023-05-22T23:16:10.369Z,19.50
2023-05-22T23:18:37.758Z,18.17
2023-05-22T23:21:04.828Z,18.17
2023-05-22T23:23:31.969Z,17.83
2023-05-22T23:25:59.213Z,16.98
2023-05-22T23:28:26.363Z,17.02
2023-05-22T23:30:53.498Z,17.27
2023-05-22T23:33:21.214Z,17.27
2023-05-22T23:35:48.396Z,18.90
2023-05-22T23:38:15.679Z,19.83
2023-05-22T23:40:42.732Z,20.40
2023-05-22T23:43:09.860Z,21.15
2023-05-22T23:45:37.164Z,21.90
2023-05-22T23:48:04.425Z,22.63
2023-05-22T23:50:31.544Z,24.27
2023-05-22T23:52:58.711Z,23.20
2023-05-22T23:55:26.000Z,23.48
2023-05-22T23:57:53.128Z,23.02
